createdAt,value
2018-08-13T00:01:38.039Z,98920.56
2018-08-13T00:04:07.259Z,98921.25
2018-08-13T00:06:36.410Z,98915.03
2018-08-13T00:09:07.531Z,98919.04
2018-08-13T00:11:37.888Z,98915.91
2018-08-13T00:14:06.889Z,98918.98
2018-08-13T00:16:36.175Z,98922.99
2018-08-13T00:19:05.515Z,98909.64
2018-08-13T00:21:34.735Z,98907.32
2018-08-13T00:24:03.939Z,98902.20
2018-08-13T00:26:33.107Z,98904.02
2018-08-13T00:29:02.235Z,98899.43
2018-08-13T00:31:31.448Z,98897.11
2018-08-13T00:34:01.395Z,98893.89
2018-08-13T00:36:30.509Z,98887.89
2018-08-13T00:38:59.547Z,98886.84
2018-08-13T00:41:28.829Z,98885.81
2018-08-13T00:43:58.342Z,98880.05
2018-08-13T00:46:27.793Z,98883.95
2018-08-13T00:48:56.845Z,98885.92
2018-08-13T00:51:26.284Z,98890.05
2018-08-13T00:53:55.667Z,98887.63
2018-08-13T00:56:24.760Z,98889.00
2018-08-13T00:58:54.007Z,98890.13
2018-08-13T01:01:23.380Z,98891.52
2018-08-13T01:03:52.588Z,98892.43
2018-08-13T01:06:21.659Z,98885.05
2018-08-13T01:08:51.083Z,98886.67
2018-08-13T01:11:20.458Z,98888.05
2018-08-13T01:13:49.936Z,98878.73
2018-08-13T01:16:19.300Z,98879.33
2018-08-13T01:18:48.524Z,98880.70
2018-08-13T01:21:17.973Z,98881.84
2018-08-13T01:23:47.172Z,98880.22
2018-08-13T01:26:16.713Z,98879.16
2018-08-13T01:28:45.800Z,98889.97
2018-08-13T01:31:15.256Z,98888.91
2018-08-13T01:33:44.449Z,98879.13
2018-08-13T01:36:13.837Z,98885.88
2018-08-13T01:38:43.189Z,98895.95
2018-08-13T01:41:13.305Z,98896.95
2018-08-13T01:43:42.735Z,98887.52
2018-08-13T01:46:12.037Z,98883.25
2018-08-13T01:48:41.598Z,98886.89
2018-08-13T01:51:11.560Z,98885.86
2018-08-13T01:53:40.985Z,98881.73
2018-08-13T01:56:10.230Z,98878.16
2018-08-13T01:58:45.775Z,98874.11
2018-08-13T02:01:15.503Z,98873.30
2018-08-13T02:03:44.923Z,98869.97
2018-08-13T02:06:14.057Z,98869.16
2018-08-13T02:08:43.684Z,98873.22
2018-08-13T02:11:13.364Z,98870.47
2018-08-13T02:13:42.760Z,98866.33
2018-08-13T02:16:12.204Z,98867.36
2018-08-13T02:18:41.401Z,98867.14
2018-08-13T02:21:10.715Z,98865.20
2018-08-13T02:23:40.103Z,98863.90
2018-08-13T02:26:09.831Z,98866.41
2018-08-13T02:28:39.282Z,98860.90
2018-08-13T02:31:08.311Z,98855.17
2018-08-13T02:33:38.031Z,98860.19
2018-08-13T02:36:09.975Z,98862.70
2018-08-13T02:38:39.511Z,98858.08
2018-08-13T02:41:09.106Z,98856.45
2018-08-13T02:43:38.366Z,98862.07
2018-08-13T02:46:07.879Z,98855.29
2018-08-13T02:48:37.237Z,98852.86
2018-08-13T02:51:06.399Z,98856.17
2018-08-13T02:53:35.675Z,98858.69
2018-08-13T02:56:05.121Z,98859.84
2018-08-13T02:58:34.273Z,98860.98
2018-08-13T03:01:03.678Z,98863.48
2018-08-13T03:03:33.298Z,98858.89
2018-08-13T03:06:03.128Z,98867.22
2018-08-13T03:08:32.860Z,98862.88
2018-08-13T03:11:01.990Z,98865.49
2018-08-13T03:13:30.994Z,98868.00
2018-08-13T03:16:00.052Z,98866.37
2018-08-13T03:18:30.275Z,98866.94
2018-08-13T03:20:59.746Z,98863.97
2018-08-13T03:23:29.167Z,98864.29
2018-08-13T03:25:58.481Z,98866.33
2018-08-13T03:28:27.917Z,98867.46
2018-08-13T03:30:57.237Z,98868.38
2018-08-13T03:33:26.192Z,98860.75
2018-08-13T03:35:55.502Z,98862.55
2018-08-13T03:38:24.455Z,98867.84
2018-08-13T03:40:53.805Z,98868.72
2018-08-13T03:43:23.333Z,98871.81
2018-08-13T03:45:52.613Z,98876.51
2018-08-13T03:48:22.474Z,98868.35
2018-08-13T03:50:51.567Z,98866.16
2018-08-13T03:53:20.723Z,98866.48
2018-08-13T03:55:49.922Z,98875.05
2018-08-13T03:58:18.982Z,98869.33
2018-08-13T04:00:48.126Z,98867.71
2018-08-13T04:03:17.414Z,98865.87
2018-08-13T04:05:46.569Z,98873.78
2018-08-13T04:08:16.288Z,98871.38
2018-08-13T04:10:45.319Z,98864.14
2018-08-13T04:13:14.491Z,98868.52
2018-08-13T04:15:43.934Z,98868.84
2018-08-13T04:18:12.984Z,98869.90
2018-08-13T04:20:42.014Z,98870.92
2018-08-13T04:23:10.971Z,98870.30
2018-08-13T04:25:40.598Z,98867.44
2018-08-13T04:28:09.606Z,98865.97
2018-08-13T04:30:39.286Z,98870.63
2018-08-13T04:33:08.782Z,98877.34
2018-08-13T04:35:38.555Z,98871.17
2018-08-13T04:38:07.597Z,98868.25
2018-08-13T04:40:37.879Z,98869.41
2018-08-13T04:43:07.235Z,98864.55
2018-08-13T04:45:36.502Z,98866.20
2018-08-13T04:48:06.232Z,98873.16
2018-08-13T04:50:35.331Z,98872.09
2018-08-13T04:53:04.232Z,98882.65
2018-08-13T04:55:33.660Z,98881.91
2018-08-13T04:58:03.656Z,98880.91
2018-08-13T05:00:33.193Z,98879.18
2018-08-13T05:03:02.352Z,98880.48
2018-08-13T05:05:31.364Z,98878.08
2018-08-13T05:08:00.807Z,98880.08
2018-08-13T05:10:30.134Z,98885.75
2018-08-13T05:12:59.232Z,98883.52
2018-08-13T05:15:28.435Z,98885.52
2018-08-13T05:17:57.708Z,98881.02
2018-08-13T05:20:27.397Z,98879.88
2018-08-13T05:22:56.603Z,98881.70
2018-08-13T05:25:25.975Z,98882.63
2018-08-13T05:27:55.150Z,98887.22
2018-08-13T05:30:24.316Z,98887.34
2018-08-13T05:32:53.686Z,98876.69
2018-08-13T05:35:22.695Z,98877.34
2018-08-13T05:37:51.928Z,98885.95
2018-08-13T05:40:21.780Z,98894.60
2018-08-13T05:42:52.593Z,98893.36
2018-08-13T05:45:22.259Z,98890.16
2018-08-13T05:47:51.503Z,98893.86
2018-08-13T05:50:20.715Z,98888.14
2018-08-13T05:52:50.625Z,98889.30
2018-08-13T05:55:19.804Z,98887.72
2018-08-13T05:57:48.861Z,98888.20
2018-08-13T06:00:18.507Z,98894.41
2018-08-13T06:02:47.691Z,98894.86
2018-08-13T06:05:16.873Z,98898.11
2018-08-13T06:07:46.157Z,98899.05
2018-08-13T06:10:15.210Z,98892.48
2018-08-13T06:12:44.465Z,98879.73
2018-08-13T06:15:14.330Z,98897.67
2018-08-13T06:17:43.642Z,98897.23
2018-08-13T06:20:13.395Z,98900.95
2018-08-13T06:22:43.721Z,98909.60
2018-08-13T06:25:13.670Z,98905.02
2018-08-13T06:27:42.908Z,98902.94
2018-08-13T06:30:14.451Z,98899.28
2018-08-13T06:32:44.138Z,98907.11
2018-08-13T06:35:13.921Z,98897.90
2018-08-13T06:37:44.178Z,98902.52
2018-08-13T06:40:13.703Z,98902.84
2018-08-13T06:42:43.116Z,98906.33
2018-08-13T06:45:12.412Z,98906.90
2018-08-13T06:47:41.893Z,98899.20
2018-08-13T06:50:12.995Z,98899.09
2018-08-13T06:52:43.256Z,98901.39
2018-08-13T06:55:12.541Z,98903.13
2018-08-13T06:57:41.958Z,98899.09
2018-08-13T07:00:12.886Z,98897.83
2018-08-13T07:02:42.279Z,98903.59
2018-08-13T07:05:11.752Z,98902.31
2018-08-13T07:07:41.816Z,98894.83
2018-08-13T07:10:12.989Z,98895.31
2018-08-13T07:12:43.561Z,98893.23
2018-08-13T07:15:17.014Z,98892.80
2018-08-13T07:17:49.461Z,98886.58
2018-08-13T07:20:19.200Z,98882.67
2018-08-13T07:22:48.542Z,98873.68
2018-08-13T07:25:17.921Z,98872.41
2018-08-13T07:27:47.133Z,98869.28
2018-08-13T07:30:17.330Z,98864.66
2018-08-13T07:32:46.307Z,98865.37
2018-08-13T07:35:15.475Z,98866.06
2018-08-13T07:37:44.546Z,98872.71
2018-08-13T07:40:16.514Z,98873.42
2018-08-13T07:42:46.223Z,98878.02
2018-08-13T07:45:15.487Z,98877.10
2018-08-13T07:47:44.623Z,98878.93
2018-08-13T07:50:15.271Z,98876.84
2018-08-13T07:52:44.775Z,98872.23
2018-08-13T07:55:14.470Z,98865.18
2018-08-13T07:57:43.621Z,98870.61
2018-08-13T08:00:15.792Z,98868.52
2018-08-13T08:02:45.175Z,98876.59
2018-08-13T08:05:14.552Z,98870.58
2018-08-13T08:07:44.281Z,98873.11
2018-08-13T08:10:15.373Z,98871.26
2018-08-13T08:12:44.653Z,98868.83
2018-08-13T08:15:16.342Z,98871.93
2018-08-13T08:17:46.020Z,98862.48
2018-08-13T08:20:15.334Z,98870.28
2018-08-13T08:22:44.294Z,98872.80
2018-08-13T08:25:18.611Z,98875.09
2018-08-13T08:27:47.910Z,98882.20
2018-08-13T08:30:16.927Z,98876.43
2018-08-13T08:32:45.997Z,98874.56
2018-08-13T08:35:16.231Z,98870.14
2018-08-13T08:37:45.428Z,98876.00
2018-08-13T08:40:17.261Z,98879.33
2018-08-13T08:42:46.780Z,98874.93
2018-08-13T08:45:19.951Z,98873.76
2018-08-13T08:47:49.237Z,98875.44
2018-08-13T08:50:18.911Z,98875.99
2018-08-13T08:52:48.395Z,98869.39
2018-08-13T08:55:21.218Z,98874.53
2018-08-13T08:57:51.293Z,98881.64
2018-08-13T09:00:21.572Z,98883.20
2018-08-13T09:02:50.690Z,98881.98
2018-08-13T09:05:20.027Z,98875.60
2018-08-13T09:07:49.313Z,98875.42
2018-08-13T09:10:18.336Z,98871.23
2018-08-13T09:12:47.336Z,98875.55
2018-08-13T09:15:17.552Z,98873.30
2018-08-13T09:17:58.695Z,98871.14
2018-08-13T09:20:38.560Z,98869.56
2018-08-13T09:23:18.227Z,98866.36
2018-08-13T09:25:57.926Z,98873.07
2018-08-13T09:28:38.547Z,98875.09
2018-08-13T09:31:18.347Z,98867.15
2018-08-13T09:33:58.451Z,98856.84
2018-08-13T09:36:27.353Z,98860.41
2018-08-13T09:38:56.452Z,98860.65
2018-08-13T09:41:25.572Z,98857.04
2018-08-13T09:43:55.000Z,98856.27
2018-08-13T09:46:24.170Z,98853.45
2018-08-13T09:48:53.783Z,98855.65
2018-08-13T09:51:23.333Z,98850.41
2018-08-13T09:53:52.754Z,98845.26
2018-08-13T09:56:21.835Z,98844.07
2018-08-13T09:58:51.440Z,98847.28
2018-08-13T10:01:20.636Z,98844.85
2018-08-13T10:03:50.266Z,98839.62
2018-08-13T10:06:19.212Z,98844.34
2018-08-13T10:08:48.467Z,98843.28
2018-08-13T10:11:17.634Z,98841.98
2018-08-13T10:13:46.663Z,98835.37
2018-08-13T10:16:16.225Z,98838.89
2018-08-13T10:18:45.097Z,98834.27
2018-08-13T10:21:14.250Z,98833.23
2018-08-13T10:23:43.380Z,98822.80
2018-08-13T10:26:12.448Z,98823.17
2018-08-13T10:28:41.509Z,98821.31
2018-08-13T10:31:10.622Z,98826.80
2018-08-13T10:33:40.243Z,98828.08
2018-08-13T10:36:09.971Z,98825.03
2018-08-13T10:38:39.083Z,98817.59
2018-08-13T10:41:08.630Z,98814.50
2018-08-13T10:43:37.988Z,98813.56
2018-08-13T10:46:08.010Z,98807.09
2018-08-13T10:48:36.925Z,98806.33
2018-08-13T10:51:06.234Z,98807.78
2018-08-13T10:53:35.748Z,98799.48
2018-08-13T10:56:05.076Z,98791.81
2018-08-13T10:58:34.380Z,98792.88
2018-08-13T11:01:03.359Z,98787.56
2018-08-13T11:03:32.605Z,98788.20
2018-08-13T11:06:01.680Z,98784.44
2018-08-13T11:08:30.780Z,98780.52
2018-08-13T11:10:59.912Z,98772.00
2018-08-13T11:13:29.242Z,98769.61
2018-08-13T11:15:58.610Z,98765.86
2018-08-13T11:18:28.229Z,98770.06
2018-08-13T11:20:57.359Z,98768.47
2018-08-13T11:23:26.343Z,98771.91
2018-08-13T11:25:55.428Z,98773.70
2018-08-13T11:28:24.515Z,98762.75
2018-08-13T11:30:53.815Z,98757.80
2018-08-13T11:33:24.183Z,98750.43
2018-08-13T11:35:53.199Z,98737.65
2018-08-13T11:38:22.340Z,98735.06
2018-08-13T11:40:51.560Z,98733.28
2018-08-13T11:43:20.776Z,98733.07
2018-08-13T11:45:50.191Z,98732.69
2018-08-13T11:48:19.223Z,98745.86
2018-08-13T11:50:48.238Z,98742.46
2018-08-13T11:53:17.227Z,98734.09
2018-08-13T11:55:46.314Z,98731.30
2018-08-13T11:58:15.810Z,98730.90
2018-08-13T12:00:44.944Z,98723.69
2018-08-13T12:03:14.305Z,98720.29
2018-08-13T12:05:43.439Z,98706.72
2018-08-13T12:08:13.081Z,98698.69
2018-08-13T12:10:42.413Z,98699.90
2018-08-13T12:13:11.510Z,98698.26
2018-08-13T12:15:40.605Z,98695.07
2018-08-13T12:18:09.718Z,98694.23
2018-08-13T12:20:38.758Z,98697.59
2018-08-13T12:23:07.755Z,98682.98
2018-08-13T12:25:37.091Z,98673.96
2018-08-13T12:28:06.475Z,98675.16
2018-08-13T12:30:36.206Z,98668.73
2018-08-13T12:33:05.418Z,98660.09
2018-08-13T12:35:35.323Z,98649.06
2018-08-13T12:38:04.641Z,98645.24
2018-08-13T12:40:33.949Z,98649.82
2018-08-13T12:43:03.314Z,98649.59
2018-08-13T12:45:32.466Z,98654.00
2018-08-13T12:48:02.456Z,98648.38
2018-08-13T12:50:31.574Z,98644.57
2018-08-13T12:53:00.648Z,98632.94
2018-08-13T12:55:30.416Z,98644.55
2018-08-13T12:57:59.762Z,98653.32
2018-08-13T13:00:29.426Z,98648.30
2018-08-13T13:02:58.572Z,98655.47
2018-08-13T13:05:27.768Z,98651.23
2018-08-13T13:07:57.785Z,98653.81
2018-08-13T13:10:27.803Z,98647.20
2018-08-13T13:12:56.944Z,98645.17
2018-08-13T13:15:25.895Z,98644.95
2018-08-13T13:17:55.583Z,98639.54
2018-08-13T13:20:24.631Z,98628.93
2018-08-13T13:22:53.846Z,98620.69
2018-08-13T13:25:22.789Z,98620.29
2018-08-13T13:27:51.964Z,98613.05
2018-08-13T13:30:21.335Z,98618.02
2018-08-13T13:32:50.426Z,98611.77
2018-08-13T13:35:19.863Z,98603.73
2018-08-13T13:37:49.678Z,98614.34
2018-08-13T13:40:19.303Z,98609.91
2018-08-13T13:42:48.542Z,98595.45
2018-08-13T13:45:18.670Z,98593.80
2018-08-13T13:47:47.780Z,98589.39
2018-08-13T13:50:18.507Z,98579.15
2018-08-13T13:52:47.441Z,98581.55
2018-08-13T13:55:17.046Z,98576.73
2018-08-13T13:57:45.983Z,98581.31
2018-08-13T14:00:16.862Z,98570.69
2018-08-13T14:02:46.962Z,98568.69
2018-08-13T14:05:15.955Z,98565.28
2018-08-13T14:07:45.125Z,98566.92
2018-08-13T14:10:16.010Z,98559.72
2018-08-13T14:12:45.982Z,98564.28
2018-08-13T14:15:16.632Z,98559.72
2018-08-13T14:17:46.209Z,98554.95
2018-08-13T14:20:15.510Z,98560.36
2018-08-13T14:22:44.568Z,98549.74
2018-08-13T14:25:14.445Z,98552.55
2018-08-13T14:27:43.610Z,98549.58
2018-08-13T14:37:18.125Z,98531.44
2018-08-13T14:39:47.292Z,98536.45
2018-08-13T14:42:16.714Z,98532.23
2018-08-13T14:44:45.629Z,98538.65
2018-08-13T14:47:14.657Z,98535.84
2018-08-13T14:49:43.732Z,98524.44
2018-08-13T14:52:12.688Z,98527.99
2018-08-13T14:54:41.772Z,98523.98
2018-08-13T14:57:10.640Z,98518.58
2018-08-13T14:59:39.531Z,98519.38
2018-08-13T15:02:08.611Z,98509.92
2018-08-13T15:04:37.967Z,98508.52
2018-08-13T15:07:07.338Z,98499.52
2018-08-13T15:09:36.445Z,98497.91
2018-08-13T15:12:05.837Z,98503.11
2018-08-13T15:14:35.074Z,98496.91
2018-08-13T15:17:04.270Z,98499.10
2018-08-13T15:19:33.231Z,98502.27
2018-08-13T15:22:02.288Z,98498.67
2018-08-13T15:24:31.415Z,98493.86
2018-08-13T15:27:00.425Z,98497.27
2018-08-13T15:29:29.618Z,98495.30
2018-08-13T15:31:59.564Z,98487.09
2018-08-13T15:34:28.615Z,98473.88
2018-08-13T15:36:57.938Z,98475.52
2018-08-13T15:39:27.343Z,98458.95
2018-08-13T15:41:56.309Z,98460.55
2018-08-13T15:44:25.299Z,98453.79
2018-08-13T15:46:54.211Z,98458.23
2018-08-13T15:49:23.271Z,98453.87
2018-08-13T15:51:52.409Z,98457.36
2018-08-13T15:54:22.030Z,98450.41
2018-08-13T15:56:51.294Z,98453.05
2018-08-13T15:59:20.414Z,98446.28
2018-08-13T16:01:49.569Z,98451.33
2018-08-13T16:04:18.796Z,98443.92
2018-08-13T16:06:48.707Z,98439.96
2018-08-13T16:09:17.891Z,98435.36
2018-08-13T16:11:47.954Z,98434.00
2018-08-13T16:14:17.021Z,98436.05
2018-08-13T16:16:46.497Z,98429.88
2018-08-13T16:19:15.460Z,98431.52
2018-08-13T16:21:44.710Z,98420.11
2018-08-13T16:24:13.747Z,98417.55
2018-08-13T16:26:43.002Z,98408.98
2018-08-13T16:29:12.225Z,98409.42
2018-08-13T16:31:41.080Z,98403.27
2018-08-13T16:34:10.302Z,98392.94
2018-08-13T16:36:39.631Z,98391.97
2018-08-13T16:39:10.693Z,98394.20
2018-08-13T16:41:40.090Z,98394.05
2018-08-13T16:44:09.573Z,98399.30
2018-08-13T16:46:38.949Z,98397.77
2018-08-13T16:49:08.255Z,98392.04
2018-08-13T16:51:37.796Z,98397.86
2018-08-13T16:54:06.852Z,98401.95
2018-08-13T16:56:36.304Z,98402.59
2018-08-13T16:59:05.358Z,98404.27
2018-08-13T17:01:35.060Z,98413.11
2018-08-13T17:04:04.551Z,98409.75
2018-08-13T17:06:33.871Z,98404.22
2018-08-13T17:09:03.304Z,98409.05
2018-08-13T17:11:34.651Z,98409.48
2018-08-13T17:14:05.463Z,98410.11
2018-08-13T17:16:34.674Z,98404.77
2018-08-13T17:19:04.575Z,98407.53
2018-08-13T17:21:34.113Z,98405.56
2018-08-13T17:24:03.573Z,98409.56
2018-08-13T17:26:33.403Z,98412.19
2018-08-13T17:29:03.132Z,98413.35
2018-08-13T17:31:32.415Z,98419.12
2018-08-13T17:34:01.525Z,98413.94
2018-08-13T17:36:30.760Z,98424.30
2018-08-13T17:39:00.983Z,98421.91
2018-08-13T17:41:30.654Z,98423.55
2018-08-13T17:44:00.230Z,98428.50
2018-08-13T17:46:29.415Z,98430.14
2018-08-13T17:48:58.384Z,98423.98
2018-08-13T17:51:28.134Z,98428.97
2018-08-13T17:53:57.304Z,98421.22
2018-08-13T17:56:26.506Z,98427.38
2018-08-13T17:58:55.748Z,98423.80
2018-08-13T18:01:25.396Z,98425.79
2018-08-13T18:03:55.018Z,98426.59
2018-08-13T18:06:28.328Z,98432.18
2018-08-13T18:08:59.948Z,98430.78
2018-08-13T18:11:29.118Z,98432.91
2018-08-13T18:13:58.620Z,98440.88
2018-08-13T18:16:28.159Z,98447.22
2018-08-13T18:18:57.614Z,98445.63
2018-08-13T18:21:27.423Z,98449.77
2018-08-13T18:23:56.580Z,98447.96
2018-08-13T18:26:25.653Z,98453.70
2018-08-13T18:28:54.651Z,98450.86
2018-08-13T18:31:23.950Z,98454.05
2018-08-13T18:33:53.071Z,98450.42
2018-08-13T18:36:22.315Z,98451.38
2018-08-13T18:38:51.346Z,98446.60
2018-08-13T18:41:20.950Z,98445.98
2018-08-13T18:43:50.375Z,98447.14
2018-08-13T18:46:19.266Z,98450.08
2018-08-13T18:48:48.725Z,98448.65
2018-08-13T18:51:18.425Z,98451.58
2018-08-13T18:53:48.023Z,98448.16
2018-08-13T18:56:17.858Z,98449.11
2018-08-13T18:58:47.208Z,98448.28
2018-08-13T19:01:16.467Z,98447.46
2018-08-13T19:03:45.647Z,98445.83
2018-08-13T19:06:15.415Z,98447.02
2018-08-13T19:08:44.680Z,98446.35
2018-08-13T19:11:14.850Z,98435.02
2018-08-13T19:13:44.504Z,98430.39
2018-08-13T19:16:13.603Z,98434.14
2018-08-13T19:18:43.636Z,98430.87
2018-08-13T19:21:12.750Z,98423.67
2018-08-13T19:23:42.014Z,98426.21
2018-08-13T19:26:11.009Z,98421.61
2018-08-13T19:28:40.781Z,98411.39
2018-08-13T19:31:10.182Z,98419.73
2018-08-13T19:33:40.248Z,98420.48
2018-08-13T19:36:09.392Z,98421.44
2018-08-13T19:38:38.634Z,98417.61
2018-08-13T19:41:14.337Z,98415.16
2018-08-13T19:43:43.196Z,98413.71
2018-08-13T19:46:12.443Z,98416.80
2018-08-13T19:48:41.807Z,98433.44
2018-08-13T19:51:11.235Z,98431.20
2018-08-13T19:53:40.937Z,98424.41
2018-08-13T19:56:10.312Z,98428.75
2018-08-13T19:58:39.970Z,98427.69
2018-08-13T20:01:09.881Z,98426.05
2018-08-13T20:03:39.137Z,98420.45
2018-08-13T20:06:08.471Z,98421.22
2018-08-13T20:08:37.715Z,98431.27
2018-08-13T20:11:06.778Z,98425.84
2018-08-13T20:13:35.974Z,98430.56
2018-08-13T20:16:05.355Z,98434.47
2018-08-13T20:18:34.964Z,98443.30
2018-08-13T20:21:04.029Z,98445.81
2018-08-13T20:23:33.752Z,98450.33
2018-08-13T20:26:02.889Z,98456.20
2018-08-13T20:28:31.931Z,98452.36
2018-08-13T20:31:01.239Z,98447.30
2018-08-13T20:33:31.104Z,98457.23
2018-08-13T20:36:00.583Z,98456.42
2018-08-13T20:38:29.831Z,98459.95
2018-08-13T20:40:58.990Z,98458.16
2018-08-13T20:43:28.211Z,98465.23
2018-08-13T20:45:57.515Z,98467.59
2018-08-13T20:48:26.436Z,98476.45
2018-08-13T20:50:56.105Z,98504.20
2018-08-13T20:53:25.477Z,98539.86
2018-08-13T20:55:54.627Z,98541.33
2018-08-13T20:58:23.775Z,98533.12
2018-08-13T21:00:52.951Z,98542.52
2018-08-13T21:03:22.067Z,98548.59
2018-08-13T21:05:51.058Z,98553.44
2018-08-13T21:08:20.578Z,98561.41
2018-08-13T21:10:49.696Z,98576.03
2018-08-13T21:13:18.836Z,98572.03
2018-08-13T21:15:49.002Z,98573.22
2018-08-13T21:18:18.099Z,98576.56
2018-08-13T21:20:47.293Z,98575.70
2018-08-13T21:23:16.421Z,98583.19
2018-08-13T21:25:46.217Z,98578.97
2018-08-13T21:28:15.222Z,98586.02
2018-08-13T21:30:44.505Z,98586.75
2018-08-13T21:33:13.476Z,98587.56
2018-08-13T21:35:44.001Z,98585.41
2018-08-13T21:38:13.297Z,98577.02
2018-08-13T21:40:42.750Z,98587.01
2018-08-13T21:43:12.079Z,98588.34
2018-08-13T21:45:42.456Z,98596.70
2018-08-13T21:48:11.457Z,98601.41
2018-08-13T21:50:40.462Z,98597.44
2018-08-13T21:53:10.622Z,98609.88
2018-08-13T21:55:40.155Z,98600.73
2018-08-13T21:58:14.056Z,98593.22
2018-08-13T22:00:48.216Z,98601.67
2018-08-13T22:03:17.090Z,98588.58
2018-08-13T22:05:46.394Z,98587.96
2018-08-13T22:08:16.811Z,98591.45
2018-08-13T22:10:45.999Z,98596.89
2018-08-13T22:13:15.114Z,98599.70
2018-08-13T22:15:45.077Z,98602.60
2018-08-13T22:18:14.302Z,98615.64
2018-08-13T22:20:43.268Z,98596.58
2018-08-13T22:23:12.827Z,98601.45
2018-08-13T22:25:46.238Z,98594.10
2018-08-13T22:28:16.770Z,98612.13
2018-08-13T22:30:45.786Z,98598.45
2018-08-13T22:33:15.643Z,98607.09
2018-08-13T22:35:44.680Z,98613.66
2018-08-13T22:38:14.577Z,98614.46
2018-08-13T22:40:43.837Z,98617.56
2018-08-13T22:43:13.220Z,98627.44
2018-08-13T22:45:42.233Z,98628.59
2018-08-13T22:48:11.400Z,98638.82
2018-08-13T22:50:40.518Z,98637.45
2018-08-13T22:53:09.610Z,98647.61
2018-08-13T22:55:38.717Z,98642.66
2018-08-13T22:58:08.003Z,98650.94
2018-08-13T23:00:37.212Z,98658.03
2018-08-13T23:03:06.816Z,98654.46
2018-08-13T23:05:36.094Z,98653.86
2018-08-13T23:08:05.007Z,98660.17
2018-08-13T23:10:34.130Z,98660.13
2018-08-13T23:13:03.703Z,98668.39
2018-08-13T23:15:32.818Z,98673.28
2018-08-13T23:18:01.914Z,98671.78
2018-08-13T23:20:30.946Z,98686.48
2018-08-13T23:23:03.848Z,98682.78
2018-08-13T23:25:34.253Z,98677.11
2018-08-13T23:28:04.849Z,98677.92
2018-08-13T23:30:33.962Z,98683.30
2018-08-13T23:33:03.363Z,98685.24
2018-08-13T23:35:32.844Z,98682.44
2018-08-13T23:38:02.043Z,98685.30
2018-08-13T23:40:31.150Z,98698.37
2018-08-13T23:43:00.468Z,98689.17
2018-08-13T23:45:30.934Z,98693.73
2018-08-13T23:48:00.355Z,98685.80
2018-08-13T23:50:29.604Z,98704.50
2018-08-13T23:53:00.765Z,98702.31
2018-08-13T23:55:32.763Z,98702.56
2018-08-13T23:58:02.102Z,98700.16
